Menalon — SXCH — position and weather

sailwx.info

Track history (hours):
 
Tides and Currents Weather Stations Pressure Air Temp Water Temp Dewpoint Dewpoint Depression Visibility Wind Speed Wind Dir Waves Ship Positions

Menalon

Last reported at 2018-Apr-28 18:11 UTC. Time now 2018-Jul-21 15:40 UTC.
Position N 37°36' E 023°42'.
Warning: this ship's position is months out of date.

Length 83 m; draft 4 m.

Type: Tanker. MMSI: 239741000.

Date/timePositionNaut miles runAvg speedWind from/ knotsBaromVisibWave heightAir tempDewpointWater temp
2018-Apr-28 18:11N 37°36' E 023°42'2 9.7
2018-Apr-28 17:59N 37°38' E 023°42'5 9.7
2018-Apr-28 17:30N 37°42' E 023°40'5 9.9
2018-Apr-28 17:01N 37°47' E 023°38'4 7.0
2018-Apr-28 16:29N 37°50' E 023°36'1 1.6
2018-Apr-28 16:00N 37°51' E 023°36'5 9.7
2018-Apr-28 15:30N 37°56' E 023°36'2 4.0
2018-Apr-28 15:00N 37°57' E 023°34'3 5.2
2018-Apr-28 14:30N 37°60' E 023°33'3 5.7
2018-Apr-28 13:59N 38°02' E 023°36'0 0.0
2018-Apr-28 13:29N 38°02' E 023°36'0 0.0
2018-Apr-28 12:59N 38°02' E 023°36'0 0.0
2018-Apr-28 12:29N 38°02' E 023°36'0 0.0
2018-Apr-28 11:59N 38°02' E 023°36'0 0.0
2018-Apr-28 11:29N 38°02' E 023°36'0 0.0
2018-Apr-28 10:59N 38°02' E 023°36'0 0.0
2018-Apr-28 10:29N 38°02' E 023°36'0 0.0
2018-Apr-28 09:59N 38°02' E 023°36'0 0.0
2018-Apr-28 09:26N 38°02' E 023°36'0 0.0
2018-Apr-28 08:59N 38°02' E 023°36'0 0.0
2018-Apr-28 08:29N 38°02' E 023°36'0 0.0
2018-Apr-28 07:59N 38°02' E 023°36'0 0.0
2018-Apr-28 07:29N 38°02' E 023°36'0 0.0
2018-Apr-28 06:59N 38°02' E 023°36'0 0.0
2018-Apr-28 06:29N 38°02' E 023°36'0 0.0
2018-Apr-28 05:59N 38°02' E 023°36'0 0.0
2018-Apr-28 05:29N 38°02' E 023°36'0 0.0
2018-Apr-28 04:59N 38°02' E 023°36'0 0.0
2018-Apr-28 04:29N 38°02' E 023°36'0 0.0
2018-Apr-28 03:59N 38°02' E 023°36'0 0.0
2018-Apr-28 03:29N 38°02' E 023°36'0 0.0
2018-Apr-28 02:59N 38°02' E 023°36'0 0.0
2018-Apr-28 02:29N 38°02' E 023°36'0 0.0
2018-Apr-28 01:59N 38°02' E 023°36'0 0.0
2018-Apr-28 01:29N 38°02' E 023°36'0 0.0
2018-Apr-28 00:59N 38°02' E 023°36'0 0.0
2018-Apr-28 00:29N 38°02' E 023°36'0 0.0
2018-Apr-27 23:59N 38°02' E 023°36'0 0.0
2018-Apr-27 23:29N 38°02' E 023°36'0 0.0
2018-Apr-27 22:59N 38°02' E 023°36'1 1.2
2018-Apr-27 22:30N 38°02' E 023°35'0 0.1
2018-Apr-27 22:00N 38°02' E 023°35'0 0.0
2018-Apr-27 21:30N 38°02' E 023°35'0 0.0
2018-Apr-27 21:00N 38°02' E 023°35'0 0.0
2018-Apr-27 20:30N 38°02' E 023°35'0 0.0
2018-Apr-27 20:00N 38°02' E 023°35'0 0.1
2018-Apr-27 19:30N 38°02' E 023°35'0 0.1
2018-Apr-27 19:00N 38°02' E 023°35'0 0.1
2018-Apr-27 18:30N 38°02' E 023°35'0 0.0
2018-Apr-27 18:00N 38°02' E 023°35'0 0.0
2018-Apr-27 17:27N 38°02' E 023°35'0 0.1
2018-Apr-27 17:00N 38°02' E 023°35'1 2.8
2018-Apr-27 16:30N 38°01' E 023°34'4 7.2
2018-Apr-27 16:00N 37°57' E 023°34'2 3.4
2018-Apr-27 15:29N 37°57' E 023°36'0 0.1
2018-Apr-27 14:59N 37°57' E 023°36'0 0.0
2018-Apr-27 14:29N 37°57' E 023°36'0 0.0
2018-Apr-27 13:29N 37°57' E 023°36'0 0.0
2018-Apr-27 12:59N 37°57' E 023°36'0 0.0
2018-Apr-27 12:29N 37°57' E 023°36'0 0.0
2018-Apr-27 11:56N 37°57' E 023°36'0 0.0
2018-Apr-27 11:29N 37°57' E 023°36'0 0.0
2018-Apr-27 10:59N 37°57' E 023°36'0 0.0
2018-Apr-27 10:29N 37°57' E 023°36'0 0.0
2018-Apr-27 09:56N 37°57' E 023°36'0 0.0
2018-Apr-27 09:29N 37°57' E 023°36'0 0.0
2018-Apr-27 08:59N 37°57' E 023°36'0 0.0
2018-Apr-27 08:29N 37°57' E 023°36'0 0.0
2018-Apr-27 07:59N 37°57' E 023°36'0 0.0
2018-Apr-27 07:29N 37°57' E 023°36'0 0.0
2018-Apr-27 06:59N 37°57' E 023°36'0 0.0
2018-Apr-27 06:29N 37°57' E 023°36'0 0.0
2018-Apr-27 05:59N 37°57' E 023°36'0 0.0
2018-Apr-27 05:29N 37°57' E 023°36'0 0.0
2018-Apr-27 04:59N 37°57' E 023°36'0 0.0
2018-Apr-27 04:29N 37°57' E 023°36'0 0.0
2018-Apr-27 03:59N 37°57' E 023°36'0 0.0
2018-Apr-27 03:26N 37°57' E 023°36'0 0.0
2018-Apr-27 02:59N 37°57' E 023°36'0 0.0
2018-Apr-27 02:29N 37°57' E 023°36'0 0.0
2018-Apr-27 01:59N 37°57' E 023°36'0 0.0
2018-Apr-27 01:26N 37°57' E 023°36'0 0.0
2018-Apr-27 00:59N 37°57' E 023°36'0 0.0
2018-Apr-27 00:29N 37°57' E 023°36'0 0.0
2018-Apr-26 23:59N 37°57' E 023°36'0 0.0
2018-Apr-26 23:29N 37°57' E 023°36'0 0.0
2018-Apr-26 22:56N 37°57' E 023°36'0 0.0
2018-Apr-26 22:29N 37°57' E 023°36'0 0.0
2018-Apr-26 21:59N 37°57' E 023°36'0 0.0
2018-Apr-26 21:29N 37°57' E 023°36'0 0.0
2018-Apr-26 20:59N 37°57' E 023°36'0 0.0
2018-Apr-26 20:29N 37°57' E 023°36'0 0.0
2018-Apr-26 19:59N 37°57' E 023°36'0 0.0
2018-Apr-26 19:29N 37°57' E 023°36'0 0.0
2018-Apr-26 18:59N 37°57' E 023°36'0 0.0
2018-Apr-26 18:29N 37°57' E 023°36'0 0.0
2018-Apr-26 17:59N 37°57' E 023°36'0 0.0
2018-Apr-26 17:29N 37°57' E 023°36'0 0.0
2018-Apr-26 16:59N 37°57' E 023°36'0 0.0
2018-Apr-26 16:29N 37°57' E 023°36'0 0.0
2018-Apr-26 15:59N 37°57' E 023°36'0 0.0
2018-Apr-26 15:29N 37°57' E 023°36'0 0.0
2018-Apr-26 14:56N 37°57' E 023°36'0 0.0
2018-Apr-26 14:29N 37°57' E 023°36'0 0.0
2018-Apr-26 13:59N 37°57' E 023°36'0 0.0
2018-Apr-26 13:29N 37°57' E 023°36'0 0.0
2018-Apr-26 12:59N 37°57' E 023°36'0 0.0
2018-Apr-26 12:29N 37°57' E 023°36'0 0.0
2018-Apr-26 11:59N 37°57' E 023°36'0 0.0
2018-Apr-26 11:29N 37°57' E 023°36'0 0.0
2018-Apr-26 10:59N 37°57' E 023°36'0 0.0
2018-Apr-26 10:29N 37°57' E 023°36'0 0.0
2018-Apr-26 09:59N 37°57' E 023°36'0 0.0
2018-Apr-26 09:29N 37°57' E 023°36'0 0.0
2018-Apr-26 08:59N 37°57' E 023°36'0 0.0
2018-Apr-26 08:29N 37°57' E 023°36'0 0.0
2018-Apr-26 07:47N 37°57' E 023°36'0 0.0
2018-Apr-26 07:29N 37°57' E 023°36'0 0.0
2018-Apr-26 06:56N 37°57' E 023°36'0 0.0
2018-Apr-26 06:23N 37°57' E 023°36'0 0.0
2018-Apr-26 05:59N 37°57' E 023°36'0 0.0
2018-Apr-26 05:29N 37°57' E 023°36'0 0.0
2018-Apr-26 04:59N 37°57' E 023°36'0 0.0
2018-Apr-26 04:29N 37°57' E 023°36'0 0.0
2018-Apr-26 03:59N 37°57' E 023°36'0 0.0
2018-Apr-26 03:29N 37°57' E 023°36'0 0.0
2018-Apr-26 02:56N 37°57' E 023°36'0 0.0
2018-Apr-26 02:29N 37°57' E 023°36'0 0.0
2018-Apr-26 01:59N 37°57' E 023°36'0 0.0
2018-Apr-26 01:29N 37°57' E 023°36'0 0.0
2018-Apr-26 00:59N 37°57' E 023°36'0 0.0
2018-Apr-26 00:29N 37°57' E 023°36'0 0.0
2018-Apr-25 23:59N 37°57' E 023°36'0 0.0
2018-Apr-25 23:29N 37°57' E 023°36'0 0.0
2018-Apr-25 22:59N 37°57' E 023°36'0 0.0
2018-Apr-25 22:26N 37°57' E 023°36'0 0.0
2018-Apr-25 21:59N 37°57' E 023°36'0 0.0
2018-Apr-25 21:23N 37°57' E 023°36'0 0.0
2018-Apr-25 20:59N 37°57' E 023°36'0 0.0
2018-Apr-25 20:29N 37°57' E 023°36'0 0.0
2018-Apr-25 19:53N 37°57' E 023°36'0 0.0
2018-Apr-25 19:17N 37°57' E 023°36'0 0.0
2018-Apr-25 18:59N 37°57' E 023°36'0 0.0
2018-Apr-25 18:21N 37°57' E 023°36'0 0.0
2018-Apr-25 17:59N 37°57' E 023°36'0 0.0
2018-Apr-25 17:23N 37°57' E 023°36'0 0.0
2018-Apr-25 16:59N 37°57' E 023°36'0 0.0
2018-Apr-25 16:26N 37°57' E 023°36'0 0.0
2018-Apr-25 15:53N 37°57' E 023°36'0 0.0
2018-Apr-25 15:17N 37°57' E 023°36'0 0.0
2018-Apr-25 14:56N 37°57' E 023°36'0 0.0
2018-Apr-25 14:23N 37°57' E 023°36'0 0.0
2018-Apr-25 13:59N 37°57' E 023°36'0 0.0
2018-Apr-25 13:26N 37°57' E 023°36'0 0.0
2018-Apr-25 12:44N 37°57' E 023°36'0 0.0
2018-Apr-25 12:17N 37°57' E 023°36'0 0.0
2018-Apr-25 11:59N 37°57' E 023°36'0 0.0
2018-Apr-25 11:26N 37°57' E 023°36'0 0.0
2018-Apr-25 10:53N 37°57' E 023°36'0 0.0
2018-Apr-25 10:26N 37°57' E 023°36'0 0.0
2018-Apr-25 09:59N 37°57' E 023°36'0 0.0
2018-Apr-25 09:29N 37°57' E 023°36'0 0.0
2018-Apr-25 08:59N 37°57' E 023°36'0 0.0
2018-Apr-25 08:26N 37°57' E 023°36'0 0.0
2018-Apr-25 07:59N 37°57' E 023°36'0 0.0
2018-Apr-25 07:29N 37°57' E 023°36'0 0.0
2018-Apr-25 06:53N 37°57' E 023°36'0 0.0
2018-Apr-25 06:29N 37°57' E 023°36'0 0.0
2018-Apr-25 05:59N 37°57' E 023°36'0 0.0
2018-Apr-25 05:29N 37°57' E 023°36'0 0.0
2018-Apr-25 04:59N 37°57' E 023°36'0 0.0
2018-Apr-25 04:29N 37°57' E 023°36'0 0.0
2018-Apr-25 03:59N 37°57' E 023°36'0 0.0
2018-Apr-25 03:29N 37°57' E 023°36'0 0.0
2018-Apr-25 02:59N 37°57' E 023°36'0 0.0
2018-Apr-25 02:29N 37°57' E 023°36'0 0.0
2018-Apr-25 01:59N 37°57' E 023°36'0 0.0
2018-Apr-25 01:29N 37°57' E 023°36'0 0.0
2018-Apr-25 00:59N 37°57' E 023°36'0 0.0
2018-Apr-25 00:29N 37°57' E 023°36'0 0.0
2018-Apr-24 23:59N 37°57' E 023°36'0 0.0
2018-Apr-24 23:29N 37°57' E 023°36'0 0.0
2018-Apr-24 22:59N 37°57' E 023°36'0 0.0
2018-Apr-24 22:29N 37°57' E 023°36'0 0.0
2018-Apr-24 21:59N 37°57' E 023°36'0 0.0
2018-Apr-24 21:29N 37°57' E 023°36'0 0.0
2018-Apr-24 20:59N 37°57' E 023°36'0 0.0
2018-Apr-24 20:29N 37°57' E 023°36'0 0.0
2018-Apr-24 19:59N 37°57' E 023°36'0 0.0
2018-Apr-24 19:26N 37°57' E 023°36'0 0.0
2018-Apr-24 18:59N 37°57' E 023°36'0 0.0
2018-Apr-24 18:29N 37°57' E 023°36'0 0.0
2018-Apr-24 17:59N 37°57' E 023°36'0 0.0
2018-Apr-24 17:29N 37°57' E 023°36'0 0.0
2018-Apr-24 16:59N 37°57' E 023°36'0 0.0
2018-Apr-24 16:29N 37°57' E 023°36'0 0.0
2018-Apr-24 15:59N 37°57' E 023°36'0 0.0
2018-Apr-24 15:29N 37°57' E 023°36'0 0.0
2018-Apr-24 14:56N 37°57' E 023°36'0 0.0
2018-Apr-24 14:29N 37°57' E 023°36'0 0.0
2018-Apr-24 13:59N 37°57' E 023°36'0 0.0
2018-Apr-24 13:29N 37°57' E 023°36'0 0.0
2018-Apr-24 12:59N 37°57' E 023°36'0 0.0
2018-Apr-24 12:26N 37°57' E 023°36'0 0.0
2018-Apr-24 11:59N 37°57' E 023°36'0 0.0
2018-Apr-24 11:29N 37°57' E 023°36'0 0.0
2018-Apr-24 10:59N 37°57' E 023°36'0 0.0
2018-Apr-24 10:29N 37°57' E 023°36'0 0.0
2018-Apr-24 09:59N 37°57' E 023°36'0 0.0
2018-Apr-24 09:29N 37°57' E 023°36'0 0.0
2018-Apr-24 08:59N 37°57' E 023°36'0 0.0
2018-Apr-24 08:29N 37°57' E 023°36'0 0.0
2018-Apr-24 07:59N 37°57' E 023°36'0 0.0
2018-Apr-24 07:29N 37°57' E 023°36'0 0.0
2018-Apr-24 06:59N 37°57' E 023°36'0 0.0
2018-Apr-24 06:29N 37°57' E 023°36'0 0.0
2018-Apr-24 05:59N 37°57' E 023°36'0 0.0
2018-Apr-24 05:29N 37°57' E 023°36'0 0.0
2018-Apr-24 04:59N 37°57' E 023°36'0 0.0
2018-Apr-24 04:29N 37°57' E 023°36'0 0.0
2018-Apr-24 03:59N 37°57' E 023°36'0 0.0
2018-Apr-24 03:29N 37°57' E 023°36'0 0.0
2018-Apr-24 02:56N 37°57' E 023°36'0 0.0
2018-Apr-24 02:29N 37°57' E 023°36'0 0.0
2018-Apr-24 01:59N 37°57' E 023°36'0 0.0
2018-Apr-24 01:29N 37°57' E 023°36'0 0.0
2018-Apr-24 00:59N 37°57' E 023°36'0 0.0
2018-Apr-24 00:29N 37°57' E 023°36'0 0.0
2018-Apr-23 23:59N 37°57' E 023°36'0 0.0
2018-Apr-23 23:26N 37°57' E 023°36'0 0.0
2018-Apr-23 22:59N 37°57' E 023°36'0 0.0
2018-Apr-23 22:29N 37°57' E 023°36'0 0.0
2018-Apr-23 21:59N 37°57' E 023°36'0 0.0
2018-Apr-23 21:29N 37°57' E 023°36'0 0.0
2018-Apr-23 20:59N 37°57' E 023°36'0 0.0
2018-Apr-23 20:29N 37°57' E 023°36'0 0.0
2018-Apr-23 19:59N 37°57' E 023°36'0 0.0
2018-Apr-23 19:29N 37°57' E 023°36'0 0.0
2018-Apr-23 18:59N 37°57' E 023°36'0 0.0
2018-Apr-23 18:29N 37°57' E 023°36'0 0.0
2018-Apr-23 17:59N 37°57' E 023°36'0 0.0
2018-Apr-23 17:29N 37°57' E 023°36'0 0.0
2018-Apr-23 16:59N 37°57' E 023°36'0 0.0
2018-Apr-23 16:29N 37°57' E 023°36'0 0.0
2018-Apr-23 15:59N 37°57' E 023°36'0 0.0
2018-Apr-23 15:29N 37°57' E 023°36'0 0.0
2018-Apr-23 14:59N 37°57' E 023°36'0 0.0
2018-Apr-23 14:29N 37°57' E 023°36'0 0.0
2018-Apr-23 13:59N 37°57' E 023°36'0 0.0
2018-Apr-23 13:29N 37°57' E 023°36'0 0.0
2018-Apr-23 12:59N 37°57' E 023°36'0 0.0
2018-Apr-23 12:29N 37°57' E 023°36'0 0.0
2018-Apr-23 11:59N 37°57' E 023°36'0 0.0
2018-Apr-23 11:29N 37°57' E 023°36'0 0.0
2018-Apr-23 10:59N 37°57' E 023°36'0 0.0
2018-Apr-23 10:29N 37°57' E 023°36'0 0.0
2018-Apr-23 09:59N 37°57' E 023°36'0 0.0
2018-Apr-23 09:29N 37°57' E 023°36'0 0.0
2018-Apr-23 08:59N 37°57' E 023°36'0 0.0
2018-Apr-23 08:29N 37°57' E 023°36'0 0.0
2018-Apr-23 07:17N 37°57' E 023°36'0 0.0
2018-Apr-23 07:00N 37°57' E 023°36'0 0.0
2018-Apr-23 06:30N 37°57' E 023°36'0 0.0
2018-Apr-23 06:00N 37°57' E 023°36'0 0.0
2018-Apr-23 05:30N 37°57' E 023°36'0 0.0
2018-Apr-23 05:00N 37°57' E 023°36'0 0.0
2018-Apr-23 04:30N 37°57' E 023°36'0 0.0
2018-Apr-23 04:00N 37°57' E 023°36'0 0.0
2018-Apr-23 03:30N 37°57' E 023°36'0 0.0
2018-Apr-23 03:00N 37°57' E 023°36'0 0.0
2018-Apr-23 02:30N 37°57' E 023°36'0 0.0
2018-Apr-23 02:00N 37°57' E 023°36'0 0.0
2018-Apr-23 01:30N 37°57' E 023°36'0 0.0
2018-Apr-23 01:00N 37°57' E 023°36'0 0.0
2018-Apr-23 00:30N 37°57' E 023°36'0 0.0
2018-Apr-23 00:00N 37°57' E 023°36'0 0.0
2018-Apr-22 23:30N 37°57' E 023°36'0 0.0
2018-Apr-22 23:00N 37°57' E 023°36'0 0.0
2018-Apr-22 22:30N 37°57' E 023°36'0 0.0
2018-Apr-22 22:00N 37°57' E 023°36'0 0.0
2018-Apr-22 21:30N 37°57' E 023°36'0 0.0
2018-Apr-22 21:00N 37°57' E 023°36'0 0.0
2018-Apr-22 20:30N 37°57' E 023°36'0 0.0
2018-Apr-22 20:00N 37°57' E 023°36'0 0.0
2018-Apr-22 19:30N 37°57' E 023°36'0 0.0
2018-Apr-22 19:00N 37°57' E 023°36'0 0.0
2018-Apr-22 18:30N 37°57' E 023°36'0 0.0
2018-Apr-22 18:00N 37°57' E 023°36'0 0.0
2018-Apr-22 17:30N 37°57' E 023°36'0 0.0
2018-Apr-22 17:00N 37°57' E 023°36'0 0.0
2018-Apr-22 16:30N 37°57' E 023°36'0 0.0
2018-Apr-22 16:00N 37°57' E 023°36'0 0.0
2018-Apr-22 15:30N 37°57' E 023°36'0 0.0
2018-Apr-22 15:00N 37°57' E 023°36'0 0.0
2018-Apr-22 14:30N 37°57' E 023°36'0 0.0
2018-Apr-22 14:00N 37°57' E 023°36'0 0.0
2018-Apr-22 13:30N 37°57' E 023°36'0 0.0
2018-Apr-22 13:00N 37°57' E 023°36'0 0.0
2018-Apr-22 12:30N 37°57' E 023°36'0 0.0
2018-Apr-22 12:00N 37°57' E 023°36'0 0.0
2018-Apr-22 11:30N 37°57' E 023°36'0 0.0
2018-Apr-22 11:00N 37°57' E 023°36'0 0.0
2018-Apr-22 10:30N 37°57' E 023°36'0 0.0
2018-Apr-22 10:00N 37°57' E 023°36'0 0.0
2018-Apr-22 09:30N 37°57' E 023°36'0 0.0
2018-Apr-22 09:00N 37°57' E 023°36'0 0.0
2018-Apr-22 08:30N 37°57' E 023°36'0 0.0
2018-Apr-22 08:00N 37°57' E 023°36'0 0.0
2018-Apr-22 07:30N 37°57' E 023°36'0 0.0
2018-Apr-22 07:00N 37°57' E 023°36'0 0.0
2018-Apr-22 06:30N 37°57' E 023°36'0 0.0
2018-Apr-22 06:00N 37°57' E 023°36'0 0.0
2018-Apr-22 05:30N 37°57' E 023°36'0 0.0
2018-Apr-22 05:00N 37°57' E 023°36'0 0.0
2018-Apr-22 04:30N 37°57' E 023°36'0 0.0
2018-Apr-22 04:00N 37°57' E 023°36'0 0.0
2018-Apr-22 03:27N 37°57' E 023°36'0 0.0
2018-Apr-22 03:00N 37°57' E 023°36'0 0.0
2018-Apr-22 02:30N 37°57' E 023°36'0 0.0
2018-Apr-22 02:00N 37°57' E 023°36'0 0.0
2018-Apr-22 01:30N 37°57' E 023°36'0 0.0
2018-Apr-22 01:00N 37°57' E 023°36'0 0.0
2018-Apr-22 00:30N 37°57' E 023°36'0 0.0
2018-Apr-22 00:00N 37°57' E 023°36'0 0.0
2018-Apr-21 23:30N 37°57' E 023°36'0 0.0
2018-Apr-21 23:00N 37°57' E 023°36'0 0.0
2018-Apr-21 22:30N 37°57' E 023°36'0 0.0
2018-Apr-21 22:00N 37°57' E 023°36'0 0.0
2018-Apr-21 21:30N 37°57' E 023°36'0 0.0
2018-Apr-21 21:00N 37°57' E 023°36'0 0.0
2018-Apr-21 20:30N 37°57' E 023°36'0 0.0
2018-Apr-21 20:00N 37°57' E 023°36'0 0.0
2018-Apr-21 19:30N 37°57' E 023°36'0 0.0
2018-Apr-21 19:00N 37°57' E 023°36'0 0.0
2018-Apr-21 18:30N 37°57' E 023°36'0 0.0
2018-Apr-21 18:00N 37°57' E 023°36'0 0.0
2018-Apr-21 17:30N 37°57' E 023°36'0 0.0
2018-Apr-21 17:00N 37°57' E 023°36'0 0.0
2018-Apr-21 16:30N 37°57' E 023°36'0 0.0
2018-Apr-21 16:00N 37°57' E 023°36'0 0.0
2018-Apr-21 15:30N 37°57' E 023°36'0 0.0
2018-Apr-21 15:00N 37°57' E 023°36'0 0.0
2018-Apr-21 14:30N 37°57' E 023°36'0 0.0
2018-Apr-21 14:00N 37°57' E 023°36'0 0.0
2018-Apr-21 13:27N 37°57' E 023°36'0 0.0
2018-Apr-21 13:00N 37°57' E 023°36'0 0.0
2018-Apr-21 12:30N 37°57' E 023°36'0 0.0
2018-Apr-21 12:00N 37°57' E 023°36'0 0.0
2018-Apr-21 11:30N 37°57' E 023°36'0 0.0
2018-Apr-21 11:00N 37°57' E 023°36'0 0.0
2018-Apr-21 10:30N 37°57' E 023°36'0 0.0
2018-Apr-21 10:00N 37°57' E 023°36'0 0.0
2018-Apr-21 09:30N 37°57' E 023°36'0 0.0
2018-Apr-21 09:00N 37°57' E 023°36'0 0.0
2018-Apr-21 08:30N 37°57' E 023°36'0 0.0
2018-Apr-21 08:00N 37°57' E 023°36'0 0.0
2018-Apr-21 07:30N 37°57' E 023°36'0 0.0
2018-Apr-21 07:00N 37°57' E 023°36'0 0.0
2018-Apr-21 06:30N 37°57' E 023°36'0 0.0
2018-Apr-21 06:00N 37°57' E 023°36'0 0.0
2018-Apr-21 05:30N 37°57' E 023°36'0 0.0
2018-Apr-21 05:00N 37°57' E 023°36'0 0.0
2018-Apr-21 04:30N 37°57' E 023°36'0 0.0
2018-Apr-21 04:00N 37°57' E 023°36'0 0.0
2018-Apr-21 03:30N 37°57' E 023°36'0 0.0
2018-Apr-21 03:00N 37°57' E 023°36'0 0.0
2018-Apr-21 02:30N 37°57' E 023°36'0 0.0
2018-Apr-21 02:00N 37°57' E 023°36'0 0.0
2018-Apr-21 01:30N 37°57' E 023°36'0 0.0
2018-Apr-21 01:00N 37°57' E 023°36'0 0.0
2018-Apr-21 00:30N 37°57' E 023°36'0 0.0
2018-Apr-21 00:00N 37°57' E 023°36'0 0.0
2018-Apr-20 23:30N 37°57' E 023°36'0 0.0
2018-Apr-20 23:00N 37°57' E 023°36'0 0.0
2018-Apr-20 22:30N 37°57' E 023°36'0 0.0
2018-Apr-20 22:00N 37°57' E 023°36'0 0.0
2018-Apr-20 21:30N 37°57' E 023°36'0 0.0
2018-Apr-20 21:00N 37°57' E 023°36'0 0.0
2018-Apr-20 20:30N 37°57' E 023°36'0 0.0
2018-Apr-20 20:00N 37°57' E 023°36'0 0.0
2018-Apr-20 19:30N 37°57' E 023°36'0 0.0
2018-Apr-20 19:00N 37°57' E 023°36'0 0.0
2018-Apr-20 18:30N 37°57' E 023°36'0 0.0
2018-Apr-20 18:00N 37°57' E 023°36'0 0.0
2018-Apr-20 17:30N 37°57' E 023°36'0 0.0
2018-Apr-20 17:00N 37°57' E 023°36'0 0.0
2018-Apr-20 16:30N 37°57' E 023°36'0 0.0
2018-Apr-20 16:00N 37°57' E 023°36'0 0.0
2018-Apr-20 15:30N 37°57' E 023°36'0 0.0
2018-Apr-20 15:00N 37°57' E 023°36'0 0.0
2018-Apr-20 14:30N 37°57' E 023°36'0 0.0
2018-Apr-20 14:00N 37°57' E 023°36'0 0.0
2018-Apr-20 13:30N 37°57' E 023°36'0 0.0
2018-Apr-20 13:00N 37°57' E 023°36'0 0.0
2018-Apr-20 12:30N 37°57' E 023°36'0 0.0
2018-Apr-20 11:57N 37°57' E 023°36'0 0.0
2018-Apr-20 11:30N 37°57' E 023°36'0 0.0
2018-Apr-20 11:00N 37°57' E 023°36'0 0.0
2018-Apr-20 10:27N 37°57' E 023°36'0 0.0
2018-Apr-20 10:00N 37°57' E 023°36'0 0.0
2018-Apr-20 09:30N 37°57' E 023°36'0 0.0
2018-Apr-20 08:57N 37°57' E 023°36'0 0.0
2018-Apr-20 08:24N 37°57' E 023°36'0 0.0
2018-Apr-20 08:00N 37°57' E 023°36'0 0.0
2018-Apr-20 07:30N 37°57' E 023°36'0 0.0
2018-Apr-20 07:00N 37°57' E 023°36'0 0.0
2018-Apr-20 06:30N 37°57' E 023°36'0 0.0
2018-Apr-20 06:00N 37°57' E 023°36'0 0.0
2018-Apr-20 05:30N 37°57' E 023°36'0 0.0
2018-Apr-20 05:00N 37°57' E 023°36'0 0.0
2018-Apr-20 04:30N 37°57' E 023°36'0 0.0
2018-Apr-20 03:57N 37°57' E 023°36'0 0.0
2018-Apr-20 03:27N 37°57' E 023°36'0 0.0
2018-Apr-20 03:00N 37°57' E 023°36'0 0.0
2018-Apr-20 02:30N 37°57' E 023°36'0 0.0
2018-Apr-20 02:00N 37°57' E 023°36'0 0.0
2018-Apr-20 01:30N 37°57' E 023°36'0 0.0
2018-Apr-20 01:00N 37°57' E 023°36'0 0.0
2018-Apr-20 00:27N 37°57' E 023°36'0 0.0
2018-Apr-20 00:00N 37°57' E 023°36'0 0.0
2018-Apr-19 23:27N 37°57' E 023°36'0 0.0
2018-Apr-19 23:00N 37°57' E 023°36'0 0.0
2018-Apr-19 22:30N 37°57' E 023°36'0 0.0
2018-Apr-19 21:57N 37°57' E 023°36'0 0.0
2018-Apr-19 21:27N 37°57' E 023°36'0 0.0
2018-Apr-19 20:54N 37°57' E 023°36'0 0.0
2018-Apr-19 20:27N 37°57' E 023°36'0 0.0
2018-Apr-19 20:00N 37°57' E 023°36'0 0.0
2018-Apr-19 19:30N 37°57' E 023°36'0 0.0
2018-Apr-19 19:00N 37°57' E 023°36'0 0.0
2018-Apr-19 18:30N 37°57' E 023°36'0 0.0
2018-Apr-19 17:54N 37°57' E 023°36'0 0.0
2018-Apr-19 17:30N 37°57' E 023°36'0 0.0
2018-Apr-19 17:00N 37°57' E 023°36'0 0.0
2018-Apr-19 16:27N 37°57' E 023°36'0 0.0
2018-Apr-19 16:00N 37°57' E 023°36'0 0.0
2018-Apr-19 15:27N 37°57' E 023°36'0 0.0
2018-Apr-19 14:57N 37°57' E 023°36'0 0.0
2018-Apr-19 14:30N 37°57' E 023°36'0 0.0
2018-Apr-19 13:54N 37°57' E 023°36'0 0.0
2018-Apr-19 13:30N 37°57' E 023°36'0 0.0
2018-Apr-19 13:00N 37°57' E 023°36'0 0.0
2018-Apr-19 12:24N 37°57' E 023°36'0 0.0
2018-Apr-19 12:00N 37°57' E 023°36'0 0.0
2018-Apr-19 11:30N 37°57' E 023°36'0 0.0
2018-Apr-19 11:00N 37°57' E 023°36'0 0.0
2018-Apr-19 10:24N 37°57' E 023°36'0 0.0
2018-Apr-19 10:00N 37°57' E 023°36'0 0.0
2018-Apr-19 09:21N 37°57' E 023°36'0 0.0
2018-Apr-19 08:42N 37°57' E 023°36'0 0.0
2018-Apr-19 08:24N 37°57' E 023°36'0 0.0
2018-Apr-19 08:00N 37°57' E 023°36'0 0.0
2018-Apr-19 07:30N 37°57' E 023°36'0 0.0
2018-Apr-19 06:57N 37°57' E 023°36'0 0.0
2018-Apr-19 06:30N 37°57' E 023°36'0 0.0
2018-Apr-19 05:57N 37°57' E 023°36'0 0.0
2018-Apr-19 05:27N 37°57' E 023°36'0 0.0
2018-Apr-19 05:00N 37°57' E 023°36'0 0.0
2018-Apr-19 04:30N 37°57' E 023°36'0 0.0
2018-Apr-19 04:00N 37°57' E 023°36'0 0.0
2018-Apr-19 03:30N 37°57' E 023°36'0 0.0
2018-Apr-19 03:00N 37°57' E 023°36'0 0.0
2018-Apr-19 02:30N 37°57' E 023°36'0 0.0
2018-Apr-19 02:00N 37°57' E 023°36'0 0.0
2018-Apr-19 01:30N 37°57' E 023°36'0 0.0
2018-Apr-19 01:00N 37°57' E 023°36'0 0.0
2018-Apr-19 00:30N 37°57' E 023°36'0 0.0
2018-Apr-19 00:00N 37°57' E 023°36'0 0.0
2018-Apr-18 23:27N 37°57' E 023°36'0 0.0
2018-Apr-18 23:00N 37°57' E 023°36'0 0.0
2018-Apr-18 22:30N 37°57' E 023°36'0 0.0
2018-Apr-18 22:00N 37°57' E 023°36'0 0.0
2018-Apr-18 21:27N 37°57' E 023°36'0 0.0
2018-Apr-18 21:00N 37°57' E 023°36'0 0.0
2018-Apr-18 20:30N 37°57' E 023°36'0 0.0
2018-Apr-18 20:00N 37°57' E 023°36'0 0.0
2018-Apr-18 19:30N 37°57' E 023°36'0 0.0
2018-Apr-18 19:00N 37°57' E 023°36'0 0.0
2018-Apr-18 18:30N 37°57' E 023°36'  
Track history (hours):
 
Tides and Currents Weather Stations Pressure Air Temp Water Temp Dewpoint Dewpoint Depression Visibility Wind Speed Wind Dir Waves Ship Positions

Menalon

Last reported at 2018-Apr-28 18:11 UTC. Time now 2018-Jul-21 15:40 UTC.
Position N 37°36' E 023°42'.
Warning: this ship's position is months out of date.

Length 83 m; draft 4 m.

Type: Tanker. MMSI: 239741000.

Date/timePositionNaut miles runAvg speedWind from/ knotsBaromVisibWave heightAir tempDewpointWater temp
2018-Apr-28 18:11N 37°36' E 023°42'2 9.7
2018-Apr-28 17:59N 37°38' E 023°42'5 9.7
2018-Apr-28 17:30N 37°42' E 023°40'5 9.9
2018-Apr-28 17:01N 37°47' E 023°38'4 7.0
2018-Apr-28 16:29N 37°50' E 023°36'1 1.6
2018-Apr-28 16:00N 37°51' E 023°36'5 9.7
2018-Apr-28 15:30N 37°56' E 023°36'2 4.0
2018-Apr-28 15:00N 37°57' E 023°34'3 5.2
2018-Apr-28 14:30N 37°60' E 023°33'3 5.7
2018-Apr-28 13:59N 38°02' E 023°36'0 0.0
2018-Apr-28 13:29N 38°02' E 023°36'0 0.0
2018-Apr-28 12:59N 38°02' E 023°36'0 0.0
2018-Apr-28 12:29N 38°02' E 023°36'0 0.0
2018-Apr-28 11:59N 38°02' E 023°36'0 0.0
2018-Apr-28 11:29N 38°02' E 023°36'0 0.0
2018-Apr-28 10:59N 38°02' E 023°36'0 0.0
2018-Apr-28 10:29N 38°02' E 023°36'0 0.0
2018-Apr-28 09:59N 38°02' E 023°36'0 0.0
2018-Apr-28 09:26N 38°02' E 023°36'0 0.0
2018-Apr-28 08:59N 38°02' E 023°36'0 0.0
2018-Apr-28 08:29N 38°02' E 023°36'0 0.0
2018-Apr-28 07:59N 38°02' E 023°36'0 0.0
2018-Apr-28 07:29N 38°02' E 023°36'0 0.0
2018-Apr-28 06:59N 38°02' E 023°36'0 0.0
2018-Apr-28 06:29N 38°02' E 023°36'0 0.0
2018-Apr-28 05:59N 38°02' E 023°36'0 0.0
2018-Apr-28 05:29N 38°02' E 023°36'0 0.0
2018-Apr-28 04:59N 38°02' E 023°36'0 0.0
2018-Apr-28 04:29N 38°02' E 023°36'0 0.0
2018-Apr-28 03:59N 38°02' E 023°36'0 0.0
2018-Apr-28 03:29N 38°02' E 023°36'0 0.0
2018-Apr-28 02:59N 38°02' E 023°36'0 0.0
2018-Apr-28 02:29N 38°02' E 023°36'0 0.0
2018-Apr-28 01:59N 38°02' E 023°36'0 0.0
2018-Apr-28 01:29N 38°02' E 023°36'0 0.0
2018-Apr-28 00:59N 38°02' E 023°36'0 0.0
2018-Apr-28 00:29N 38°02' E 023°36'0 0.0
2018-Apr-27 23:59N 38°02' E 023°36'0 0.0
2018-Apr-27 23:29N 38°02' E 023°36'0 0.0
2018-Apr-27 22:59N 38°02' E 023°36'1 1.2
2018-Apr-27 22:30N 38°02' E 023°35'0 0.1
2018-Apr-27 22:00N 38°02' E 023°35'0 0.0
2018-Apr-27 21:30N 38°02' E 023°35'0 0.0
2018-Apr-27 21:00N 38°02' E 023°35'0 0.0
2018-Apr-27 20:30N 38°02' E 023°35'0 0.0
2018-Apr-27 20:00N 38°02' E 023°35'0 0.1
2018-Apr-27 19:30N 38°02' E 023°35'0 0.1
2018-Apr-27 19:00N 38°02' E 023°35'0 0.1
2018-Apr-27 18:30N 38°02' E 023°35'0 0.0
2018-Apr-27 18:00N 38°02' E 023°35'0 0.0
2018-Apr-27 17:27N 38°02' E 023°35'0 0.1
2018-Apr-27 17:00N 38°02' E 023°35'1 2.8
2018-Apr-27 16:30N 38°01' E 023°34'4 7.2
2018-Apr-27 16:00N 37°57' E 023°34'2 3.4
2018-Apr-27 15:29N 37°57' E 023°36'0 0.1
2018-Apr-27 14:59N 37°57' E 023°36'0 0.0
2018-Apr-27 14:29N 37°57' E 023°36'0 0.0
2018-Apr-27 13:29N 37°57' E 023°36'0 0.0
2018-Apr-27 12:59N 37°57' E 023°36'0 0.0
2018-Apr-27 12:29N 37°57' E 023°36'0 0.0
2018-Apr-27 11:56N 37°57' E 023°36'0 0.0
2018-Apr-27 11:29N 37°57' E 023°36'0 0.0
2018-Apr-27 10:59N 37°57' E 023°36'0 0.0
2018-Apr-27 10:29N 37°57' E 023°36'0 0.0
2018-Apr-27 09:56N 37°57' E 023°36'0 0.0
2018-Apr-27 09:29N 37°57' E 023°36'0 0.0
2018-Apr-27 08:59N 37°57' E 023°36'0 0.0
2018-Apr-27 08:29N 37°57' E 023°36'0 0.0
2018-Apr-27 07:59N 37°57' E 023°36'0 0.0
2018-Apr-27 07:29N 37°57' E 023°36'0 0.0
2018-Apr-27 06:59N 37°57' E 023°36'0 0.0
2018-Apr-27 06:29N 37°57' E 023°36'0 0.0
2018-Apr-27 05:59N 37°57' E 023°36'0 0.0
2018-Apr-27 05:29N 37°57' E 023°36'0 0.0
2018-Apr-27 04:59N 37°57' E 023°36'0 0.0
2018-Apr-27 04:29N 37°57' E 023°36'0 0.0
2018-Apr-27 03:59N 37°57' E 023°36'0 0.0
2018-Apr-27 03:26N 37°57' E 023°36'0 0.0
2018-Apr-27 02:59N 37°57' E 023°36'0 0.0
2018-Apr-27 02:29N 37°57' E 023°36'0 0.0
2018-Apr-27 01:59N 37°57' E 023°36'0 0.0
2018-Apr-27 01:26N 37°57' E 023°36'0 0.0
2018-Apr-27 00:59N 37°57' E 023°36'0 0.0
2018-Apr-27 00:29N 37°57' E 023°36'0 0.0
2018-Apr-26 23:59N 37°57' E 023°36'0 0.0
2018-Apr-26 23:29N 37°57' E 023°36'0 0.0
2018-Apr-26 22:56N 37°57' E 023°36'0 0.0
2018-Apr-26 22:29N 37°57' E 023°36'0 0.0
2018-Apr-26 21:59N 37°57' E 023°36'0 0.0
2018-Apr-26 21:29N 37°57' E 023°36'0 0.0
2018-Apr-26 20:59N 37°57' E 023°36'0 0.0
2018-Apr-26 20:29N 37°57' E 023°36'0 0.0
2018-Apr-26 19:59N 37°57' E 023°36'0 0.0
2018-Apr-26 19:29N 37°57' E 023°36'0 0.0
2018-Apr-26 18:59N 37°57' E 023°36'0 0.0
2018-Apr-26 18:29N 37°57' E 023°36'0 0.0
2018-Apr-26 17:59N 37°57' E 023°36'0 0.0
2018-Apr-26 17:29N 37°57' E 023°36'0 0.0
2018-Apr-26 16:59N 37°57' E 023°36'0 0.0
2018-Apr-26 16:29N 37°57' E 023°36'0 0.0
2018-Apr-26 15:59N 37°57' E 023°36'0 0.0
2018-Apr-26 15:29N 37°57' E 023°36'0 0.0
2018-Apr-26 14:56N 37°57' E 023°36'0 0.0
2018-Apr-26 14:29N 37°57' E 023°36'0 0.0
2018-Apr-26 13:59N 37°57' E 023°36'0 0.0
2018-Apr-26 13:29N 37°57' E 023°36'0 0.0
2018-Apr-26 12:59N 37°57' E 023°36'0 0.0
2018-Apr-26 12:29N 37°57' E 023°36'0 0.0
2018-Apr-26 11:59N 37°57' E 023°36'0 0.0
2018-Apr-26 11:29N 37°57' E 023°36'0 0.0
2018-Apr-26 10:59N 37°57' E 023°36'0 0.0
2018-Apr-26 10:29N 37°57' E 023°36'0 0.0
2018-Apr-26 09:59N 37°57' E 023°36'0 0.0
2018-Apr-26 09:29N 37°57' E 023°36'0 0.0
2018-Apr-26 08:59N 37°57' E 023°36'0 0.0
2018-Apr-26 08:29N 37°57' E 023°36'0 0.0
2018-Apr-26 07:47N 37°57' E 023°36'0 0.0
2018-Apr-26 07:29N 37°57' E 023°36'0 0.0
2018-Apr-26 06:56N 37°57' E 023°36'0 0.0
2018-Apr-26 06:23N 37°57' E 023°36'0 0.0
2018-Apr-26 05:59N 37°57' E 023°36'0 0.0
2018-Apr-26 05:29N 37°57' E 023°36'0 0.0
2018-Apr-26 04:59N 37°57' E 023°36'0 0.0
2018-Apr-26 04:29N 37°57' E 023°36'0 0.0
2018-Apr-26 03:59N 37°57' E 023°36'0 0.0
2018-Apr-26 03:29N 37°57' E 023°36'0 0.0
2018-Apr-26 02:56N 37°57' E 023°36'0 0.0
2018-Apr-26 02:29N 37°57' E 023°36'0 0.0
2018-Apr-26 01:59N 37°57' E 023°36'0 0.0
2018-Apr-26 01:29N 37°57' E 023°36'0 0.0
2018-Apr-26 00:59N 37°57' E 023°36'0 0.0
2018-Apr-26 00:29N 37°57' E 023°36'0 0.0
2018-Apr-25 23:59N 37°57' E 023°36'0 0.0
2018-Apr-25 23:29N 37°57' E 023°36'0 0.0
2018-Apr-25 22:59N 37°57' E 023°36'0 0.0
2018-Apr-25 22:26N 37°57' E 023°36'0 0.0
2018-Apr-25 21:59N 37°57' E 023°36'0 0.0
2018-Apr-25 21:23N 37°57' E 023°36'0 0.0
2018-Apr-25 20:59N 37°57' E 023°36'0 0.0
2018-Apr-25 20:29N 37°57' E 023°36'0 0.0
2018-Apr-25 19:53N 37°57' E 023°36'0 0.0
2018-Apr-25 19:17N 37°57' E 023°36'0 0.0
2018-Apr-25 18:59N 37°57' E 023°36'0 0.0
2018-Apr-25 18:21N 37°57' E 023°36'0 0.0
2018-Apr-25 17:59N 37°57' E 023°36'0 0.0
2018-Apr-25 17:23N 37°57' E 023°36'0 0.0
2018-Apr-25 16:59N 37°57' E 023°36'0 0.0
2018-Apr-25 16:26N 37°57' E 023°36'0 0.0
2018-Apr-25 15:53N 37°57' E 023°36'0 0.0
2018-Apr-25 15:17N 37°57' E 023°36'0 0.0
2018-Apr-25 14:56N 37°57' E 023°36'0 0.0
2018-Apr-25 14:23N 37°57' E 023°36'0 0.0
2018-Apr-25 13:59N 37°57' E 023°36'0 0.0
2018-Apr-25 13:26N 37°57' E 023°36'0 0.0
2018-Apr-25 12:44N 37°57' E 023°36'0 0.0
2018-Apr-25 12:17N 37°57' E 023°36'0 0.0
2018-Apr-25 11:59N 37°57' E 023°36'0 0.0
2018-Apr-25 11:26N 37°57' E 023°36'0 0.0
2018-Apr-25 10:53N 37°57' E 023°36'0 0.0
2018-Apr-25 10:26N 37°57' E 023°36'0 0.0
2018-Apr-25 09:59N 37°57' E 023°36'0 0.0
2018-Apr-25 09:29N 37°57' E 023°36'0 0.0
2018-Apr-25 08:59N 37°57' E 023°36'0 0.0
2018-Apr-25 08:26N 37°57' E 023°36'0 0.0
2018-Apr-25 07:59N 37°57' E 023°36'0 0.0
2018-Apr-25 07:29N 37°57' E 023°36'0 0.0
2018-Apr-25 06:53N 37°57' E 023°36'0 0.0
2018-Apr-25 06:29N 37°57' E 023°36'0 0.0
2018-Apr-25 05:59N 37°57' E 023°36'0 0.0
2018-Apr-25 05:29N 37°57' E 023°36'0 0.0
2018-Apr-25 04:59N 37°57' E 023°36'0 0.0
2018-Apr-25 04:29N 37°57' E 023°36'0 0.0
2018-Apr-25 03:59N 37°57' E 023°36'0 0.0
2018-Apr-25 03:29N 37°57' E 023°36'0 0.0
2018-Apr-25 02:59N 37°57' E 023°36'0 0.0
2018-Apr-25 02:29N 37°57' E 023°36'0 0.0
2018-Apr-25 01:59N 37°57' E 023°36'0 0.0
2018-Apr-25 01:29N 37°57' E 023°36'0 0.0
2018-Apr-25 00:59N 37°57' E 023°36'0 0.0
2018-Apr-25 00:29N 37°57' E 023°36'0 0.0
2018-Apr-24 23:59N 37°57' E 023°36'0 0.0
2018-Apr-24 23:29N 37°57' E 023°36'0 0.0
2018-Apr-24 22:59N 37°57' E 023°36'0 0.0
2018-Apr-24 22:29N 37°57' E 023°36'0 0.0
2018-Apr-24 21:59N 37°57' E 023°36'0 0.0
2018-Apr-24 21:29N 37°57' E 023°36'0 0.0
2018-Apr-24 20:59N 37°57' E 023°36'0 0.0
2018-Apr-24 20:29N 37°57' E 023°36'0 0.0
2018-Apr-24 19:59N 37°57' E 023°36'0 0.0
2018-Apr-24 19:26N 37°57' E 023°36'0 0.0
2018-Apr-24 18:59N 37°57' E 023°36'0 0.0
2018-Apr-24 18:29N 37°57' E 023°36'0 0.0
2018-Apr-24 17:59N 37°57' E 023°36'0 0.0
2018-Apr-24 17:29N 37°57' E 023°36'0 0.0
2018-Apr-24 16:59N 37°57' E 023°36'0 0.0
2018-Apr-24 16:29N 37°57' E 023°36'0 0.0
2018-Apr-24 15:59N 37°57' E 023°36'0 0.0
2018-Apr-24 15:29N 37°57' E 023°36'0 0.0
2018-Apr-24 14:56N 37°57' E 023°36'0 0.0
2018-Apr-24 14:29N 37°57' E 023°36'0 0.0
2018-Apr-24 13:59N 37°57' E 023°36'0 0.0
2018-Apr-24 13:29N 37°57' E 023°36'0 0.0
2018-Apr-24 12:59N 37°57' E 023°36'0 0.0
2018-Apr-24 12:26N 37°57' E 023°36'0 0.0
2018-Apr-24 11:59N 37°57' E 023°36'0 0.0
2018-Apr-24 11:29N 37°57' E 023°36'0 0.0
2018-Apr-24 10:59N 37°57' E 023°36'0 0.0
2018-Apr-24 10:29N 37°57' E 023°36'0 0.0
2018-Apr-24 09:59N 37°57' E 023°36'0 0.0
2018-Apr-24 09:29N 37°57' E 023°36'0 0.0
2018-Apr-24 08:59N 37°57' E 023°36'0 0.0
2018-Apr-24 08:29N 37°57' E 023°36'0 0.0
2018-Apr-24 07:59N 37°57' E 023°36'0 0.0
2018-Apr-24 07:29N 37°57' E 023°36'0 0.0
2018-Apr-24 06:59N 37°57' E 023°36'0 0.0
2018-Apr-24 06:29N 37°57' E 023°36'0 0.0
2018-Apr-24 05:59N 37°57' E 023°36'0 0.0
2018-Apr-24 05:29N 37°57' E 023°36'0 0.0
2018-Apr-24 04:59N 37°57' E 023°36'0 0.0
2018-Apr-24 04:29N 37°57' E 023°36'0 0.0
2018-Apr-24 03:59N 37°57' E 023°36'0 0.0
2018-Apr-24 03:29N 37°57' E 023°36'0 0.0
2018-Apr-24 02:56N 37°57' E 023°36'0 0.0
2018-Apr-24 02:29N 37°57' E 023°36'0 0.0
2018-Apr-24 01:59N 37°57' E 023°36'0 0.0
2018-Apr-24 01:29N 37°57' E 023°36'0 0.0
2018-Apr-24 00:59N 37°57' E 023°36'0 0.0
2018-Apr-24 00:29N 37°57' E 023°36'0 0.0
2018-Apr-23 23:59N 37°57' E 023°36'0 0.0
2018-Apr-23 23:26N 37°57' E 023°36'0 0.0
2018-Apr-23 22:59N 37°57' E 023°36'0 0.0
2018-Apr-23 22:29N 37°57' E 023°36'0 0.0
2018-Apr-23 21:59N 37°57' E 023°36'0 0.0
2018-Apr-23 21:29N 37°57' E 023°36'0 0.0
2018-Apr-23 20:59N 37°57' E 023°36'0 0.0
2018-Apr-23 20:29N 37°57' E 023°36'0 0.0
2018-Apr-23 19:59N 37°57' E 023°36'0 0.0
2018-Apr-23 19:29N 37°57' E 023°36'0 0.0
2018-Apr-23 18:59N 37°57' E 023°36'0 0.0
2018-Apr-23 18:29N 37°57' E 023°36'0 0.0
2018-Apr-23 17:59N 37°57' E 023°36'0 0.0
2018-Apr-23 17:29N 37°57' E 023°36'0 0.0
2018-Apr-23 16:59N 37°57' E 023°36'0 0.0
2018-Apr-23 16:29N 37°57' E 023°36'0 0.0
2018-Apr-23 15:59N 37°57' E 023°36'0 0.0
2018-Apr-23 15:29N 37°57' E 023°36'0 0.0
2018-Apr-23 14:59N 37°57' E 023°36'0 0.0
2018-Apr-23 14:29N 37°57' E 023°36'0 0.0
2018-Apr-23 13:59N 37°57' E 023°36'0 0.0
2018-Apr-23 13:29N 37°57' E 023°36'0 0.0
2018-Apr-23 12:59N 37°57' E 023°36'0 0.0
2018-Apr-23 12:29N 37°57' E 023°36'0 0.0
2018-Apr-23 11:59N 37°57' E 023°36'0 0.0
2018-Apr-23 11:29N 37°57' E 023°36'0 0.0
2018-Apr-23 10:59N 37°57' E 023°36'0 0.0
2018-Apr-23 10:29N 37°57' E 023°36'0 0.0
2018-Apr-23 09:59N 37°57' E 023°36'0 0.0
2018-Apr-23 09:29N 37°57' E 023°36'0 0.0
2018-Apr-23 08:59N 37°57' E 023°36'0 0.0
2018-Apr-23 08:29N 37°57' E 023°36'0 0.0
2018-Apr-23 07:17N 37°57' E 023°36'0 0.0
2018-Apr-23 07:00N 37°57' E 023°36'0 0.0
2018-Apr-23 06:30N 37°57' E 023°36'0 0.0
2018-Apr-23 06:00N 37°57' E 023°36'0 0.0
2018-Apr-23 05:30N 37°57' E 023°36'0 0.0
2018-Apr-23 05:00N 37°57' E 023°36'0 0.0
2018-Apr-23 04:30N 37°57' E 023°36'0 0.0
2018-Apr-23 04:00N 37°57' E 023°36'0 0.0
2018-Apr-23 03:30N 37°57' E 023°36'0 0.0
2018-Apr-23 03:00N 37°57' E 023°36'0 0.0
2018-Apr-23 02:30N 37°57' E 023°36'0 0.0
2018-Apr-23 02:00N 37°57' E 023°36'0 0.0
2018-Apr-23 01:30N 37°57' E 023°36'0 0.0
2018-Apr-23 01:00N 37°57' E 023°36'0 0.0
2018-Apr-23 00:30N 37°57' E 023°36'0 0.0
2018-Apr-23 00:00N 37°57' E 023°36'0 0.0
2018-Apr-22 23:30N 37°57' E 023°36'0 0.0
2018-Apr-22 23:00N 37°57' E 023°36'0 0.0
2018-Apr-22 22:30N 37°57' E 023°36'0 0.0
2018-Apr-22 22:00N 37°57' E 023°36'0 0.0
2018-Apr-22 21:30N 37°57' E 023°36'0 0.0
2018-Apr-22 21:00N 37°57' E 023°36'0 0.0
2018-Apr-22 20:30N 37°57' E 023°36'0 0.0
2018-Apr-22 20:00N 37°57' E 023°36'0 0.0
2018-Apr-22 19:30N 37°57' E 023°36'0 0.0
2018-Apr-22 19:00N 37°57' E 023°36'0 0.0
2018-Apr-22 18:30N 37°57' E 023°36'0 0.0
2018-Apr-22 18:00N 37°57' E 023°36'0 0.0
2018-Apr-22 17:30N 37°57' E 023°36'0 0.0
2018-Apr-22 17:00N 37°57' E 023°36'0 0.0
2018-Apr-22 16:30N 37°57' E 023°36'0 0.0
2018-Apr-22 16:00N 37°57' E 023°36'0 0.0
2018-Apr-22 15:30N 37°57' E 023°36'0 0.0
2018-Apr-22 15:00N 37°57' E 023°36'0 0.0
2018-Apr-22 14:30N 37°57' E 023°36'0 0.0
2018-Apr-22 14:00N 37°57' E 023°36'0 0.0
2018-Apr-22 13:30N 37°57' E 023°36'0 0.0
2018-Apr-22 13:00N 37°57' E 023°36'0 0.0
2018-Apr-22 12:30N 37°57' E 023°36'0 0.0
2018-Apr-22 12:00N 37°57' E 023°36'0 0.0
2018-Apr-22 11:30N 37°57' E 023°36'0 0.0
2018-Apr-22 11:00N 37°57' E 023°36'0 0.0
2018-Apr-22 10:30N 37°57' E 023°36'0 0.0
2018-Apr-22 10:00N 37°57' E 023°36'0 0.0
2018-Apr-22 09:30N 37°57' E 023°36'0 0.0
2018-Apr-22 09:00N 37°57' E 023°36'0 0.0
2018-Apr-22 08:30N 37°57' E 023°36'0 0.0
2018-Apr-22 08:00N 37°57' E 023°36'0 0.0
2018-Apr-22 07:30N 37°57' E 023°36'0 0.0
2018-Apr-22 07:00N 37°57' E 023°36'0 0.0
2018-Apr-22 06:30N 37°57' E 023°36'0 0.0
2018-Apr-22 06:00N 37°57' E 023°36'0 0.0
2018-Apr-22 05:30N 37°57' E 023°36'0 0.0
2018-Apr-22 05:00N 37°57' E 023°36'0 0.0
2018-Apr-22 04:30N 37°57' E 023°36'0 0.0
2018-Apr-22 04:00N 37°57' E 023°36'0 0.0
2018-Apr-22 03:27N 37°57' E 023°36'0 0.0
2018-Apr-22 03:00N 37°57' E 023°36'0 0.0
2018-Apr-22 02:30N 37°57' E 023°36'0 0.0
2018-Apr-22 02:00N 37°57' E 023°36'0 0.0
2018-Apr-22 01:30N 37°57' E 023°36'0 0.0
2018-Apr-22 01:00N 37°57' E 023°36'0 0.0
2018-Apr-22 00:30N 37°57' E 023°36'0 0.0
2018-Apr-22 00:00N 37°57' E 023°36'0 0.0
2018-Apr-21 23:30N 37°57' E 023°36'0 0.0
2018-Apr-21 23:00N 37°57' E 023°36'0 0.0
2018-Apr-21 22:30N 37°57' E 023°36'0 0.0
2018-Apr-21 22:00N 37°57' E 023°36'0 0.0
2018-Apr-21 21:30N 37°57' E 023°36'0 0.0
2018-Apr-21 21:00N 37°57' E 023°36'0 0.0
2018-Apr-21 20:30N 37°57' E 023°36'0 0.0
2018-Apr-21 20:00N 37°57' E 023°36'0 0.0
2018-Apr-21 19:30N 37°57' E 023°36'0 0.0
2018-Apr-21 19:00N 37°57' E 023°36'0 0.0
2018-Apr-21 18:30N 37°57' E 023°36'0 0.0
2018-Apr-21 18:00N 37°57' E 023°36'0 0.0
2018-Apr-21 17:30N 37°57' E 023°36'0 0.0
2018-Apr-21 17:00N 37°57' E 023°36'0 0.0
2018-Apr-21 16:30N 37°57' E 023°36'0 0.0
2018-Apr-21 16:00N 37°57' E 023°36'0 0.0
2018-Apr-21 15:30N 37°57' E 023°36'0 0.0
2018-Apr-21 15:00N 37°57' E 023°36'0 0.0
2018-Apr-21 14:30N 37°57' E 023°36'0 0.0
2018-Apr-21 14:00N 37°57' E 023°36'0 0.0
2018-Apr-21 13:27N 37°57' E 023°36'0 0.0
2018-Apr-21 13:00N 37°57' E 023°36'0 0.0
2018-Apr-21 12:30N 37°57' E 023°36'0 0.0
2018-Apr-21 12:00N 37°57' E 023°36'0 0.0
2018-Apr-21 11:30N 37°57' E 023°36'0 0.0
2018-Apr-21 11:00N 37°57' E 023°36'0 0.0
2018-Apr-21 10:30N 37°57' E 023°36'0 0.0
2018-Apr-21 10:00N 37°57' E 023°36'0 0.0
2018-Apr-21 09:30N 37°57' E 023°36'0 0.0
2018-Apr-21 09:00N 37°57' E 023°36'0 0.0
2018-Apr-21 08:30N 37°57' E 023°36'0 0.0
2018-Apr-21 08:00N 37°57' E 023°36'0 0.0
2018-Apr-21 07:30N 37°57' E 023°36'0 0.0
2018-Apr-21 07:00N 37°57' E 023°36'0 0.0
2018-Apr-21 06:30N 37°57' E 023°36'0 0.0
2018-Apr-21 06:00N 37°57' E 023°36'0 0.0
2018-Apr-21 05:30N 37°57' E 023°36'0 0.0
2018-Apr-21 05:00N 37°57' E 023°36'0 0.0
2018-Apr-21 04:30N 37°57' E 023°36'0 0.0
2018-Apr-21 04:00N 37°57' E 023°36'0 0.0
2018-Apr-21 03:30N 37°57' E 023°36'0 0.0
2018-Apr-21 03:00N 37°57' E 023°36'0 0.0
2018-Apr-21 02:30N 37°57' E 023°36'0 0.0
2018-Apr-21 02:00N 37°57' E 023°36'0 0.0
2018-Apr-21 01:30N 37°57' E 023°36'0 0.0
2018-Apr-21 01:00N 37°57' E 023°36'0 0.0
2018-Apr-21 00:30N 37°57' E 023°36'0 0.0
2018-Apr-21 00:00N 37°57' E 023°36'0 0.0
2018-Apr-20 23:30N 37°57' E 023°36'0 0.0
2018-Apr-20 23:00N 37°57' E 023°36'0 0.0
2018-Apr-20 22:30N 37°57' E 023°36'0 0.0
2018-Apr-20 22:00N 37°57' E 023°36'0 0.0
2018-Apr-20 21:30N 37°57' E 023°36'0 0.0
2018-Apr-20 21:00N 37°57' E 023°36'0 0.0
2018-Apr-20 20:30N 37°57' E 023°36'0 0.0
2018-Apr-20 20:00N 37°57' E 023°36'0 0.0
2018-Apr-20 19:30N 37°57' E 023°36'0 0.0
2018-Apr-20 19:00N 37°57' E 023°36'0 0.0
2018-Apr-20 18:30N 37°57' E 023°36'0 0.0
2018-Apr-20 18:00N 37°57' E 023°36'0 0.0
2018-Apr-20 17:30N 37°57' E 023°36'0 0.0
2018-Apr-20 17:00N 37°57' E 023°36'0 0.0
2018-Apr-20 16:30N 37°57' E 023°36'0 0.0
2018-Apr-20 16:00N 37°57' E 023°36'0 0.0
2018-Apr-20 15:30N 37°57' E 023°36'0 0.0
2018-Apr-20 15:00N 37°57' E 023°36'0 0.0
2018-Apr-20 14:30N 37°57' E 023°36'0 0.0
2018-Apr-20 14:00N 37°57' E 023°36'0 0.0
2018-Apr-20 13:30N 37°57' E 023°36'0 0.0
2018-Apr-20 13:00N 37°57' E 023°36'0 0.0
2018-Apr-20 12:30N 37°57' E 023°36'0 0.0
2018-Apr-20 11:57N 37°57' E 023°36'0 0.0
2018-Apr-20 11:30N 37°57' E 023°36'0 0.0
2018-Apr-20 11:00N 37°57' E 023°36'0 0.0
2018-Apr-20 10:27N 37°57' E 023°36'0 0.0
2018-Apr-20 10:00N 37°57' E 023°36'0 0.0
2018-Apr-20 09:30N 37°57' E 023°36'0 0.0
2018-Apr-20 08:57N 37°57' E 023°36'0 0.0
2018-Apr-20 08:24N 37°57' E 023°36'0 0.0
2018-Apr-20 08:00N 37°57' E 023°36'0 0.0
2018-Apr-20 07:30N 37°57' E 023°36'0 0.0
2018-Apr-20 07:00N 37°57' E 023°36'0 0.0
2018-Apr-20 06:30N 37°57' E 023°36'0 0.0
2018-Apr-20 06:00N 37°57' E 023°36'0 0.0
2018-Apr-20 05:30N 37°57' E 023°36'0 0.0
2018-Apr-20 05:00N 37°57' E 023°36'0 0.0
2018-Apr-20 04:30N 37°57' E 023°36'0 0.0
2018-Apr-20 03:57N 37°57' E 023°36'0 0.0
2018-Apr-20 03:27N 37°57' E 023°36'0 0.0
2018-Apr-20 03:00N 37°57' E 023°36'0 0.0
2018-Apr-20 02:30N 37°57' E 023°36'0 0.0
2018-Apr-20 02:00N 37°57' E 023°36'0 0.0
2018-Apr-20 01:30N 37°57' E 023°36'0 0.0
2018-Apr-20 01:00N 37°57' E 023°36'0 0.0
2018-Apr-20 00:27N 37°57' E 023°36'0 0.0
2018-Apr-20 00:00N 37°57' E 023°36'0 0.0
2018-Apr-19 23:27N 37°57' E 023°36'0 0.0
2018-Apr-19 23:00N 37°57' E 023°36'0 0.0
2018-Apr-19 22:30N 37°57' E 023°36'0 0.0
2018-Apr-19 21:57N 37°57' E 023°36'0 0.0
2018-Apr-19 21:27N 37°57' E 023°36'0 0.0
2018-Apr-19 20:54N 37°57' E 023°36'0 0.0
2018-Apr-19 20:27N 37°57' E 023°36'0 0.0
2018-Apr-19 20:00N 37°57' E 023°36'0 0.0
2018-Apr-19 19:30N 37°57' E 023°36'0 0.0
2018-Apr-19 19:00N 37°57' E 023°36'0 0.0
2018-Apr-19 18:30N 37°57' E 023°36'0 0.0
2018-Apr-19 17:54N 37°57' E 023°36'0 0.0
2018-Apr-19 17:30N 37°57' E 023°36'0 0.0
2018-Apr-19 17:00N 37°57' E 023°36'0 0.0
2018-Apr-19 16:27N 37°57' E 023°36'0 0.0
2018-Apr-19 16:00N 37°57' E 023°36'0 0.0
2018-Apr-19 15:27N 37°57' E 023°36'0 0.0
2018-Apr-19 14:57N 37°57' E 023°36'0 0.0
2018-Apr-19 14:30N 37°57' E 023°36'0 0.0
2018-Apr-19 13:54N 37°57' E 023°36'0 0.0
2018-Apr-19 13:30N 37°57' E 023°36'0 0.0
2018-Apr-19 13:00N 37°57' E 023°36'0 0.0
2018-Apr-19 12:24N 37°57' E 023°36'0 0.0
2018-Apr-19 12:00N 37°57' E 023°36'0 0.0
2018-Apr-19 11:30N 37°57' E 023°36'0 0.0
2018-Apr-19 11:00N 37°57' E 023°36'0 0.0
2018-Apr-19 10:24N 37°57' E 023°36'0 0.0
2018-Apr-19 10:00N 37°57' E 023°36'0 0.0
2018-Apr-19 09:21N 37°57' E 023°36'0 0.0
2018-Apr-19 08:42N 37°57' E 023°36'0 0.0
2018-Apr-19 08:24N 37°57' E 023°36'0 0.0
2018-Apr-19 08:00N 37°57' E 023°36'0 0.0
2018-Apr-19 07:30N 37°57' E 023°36'0 0.0
2018-Apr-19 06:57N 37°57' E 023°36'0 0.0
2018-Apr-19 06:30N 37°57' E 023°36'0 0.0
2018-Apr-19 05:57N 37°57' E 023°36'0 0.0
2018-Apr-19 05:27N 37°57' E 023°36'0 0.0
2018-Apr-19 05:00N 37°57' E 023°36'0 0.0
2018-Apr-19 04:30N 37°57' E 023°36'0 0.0
2018-Apr-19 04:00N 37°57' E 023°36'0 0.0
2018-Apr-19 03:30N 37°57' E 023°36'0 0.0
2018-Apr-19 03:00N 37°57' E 023°36'0 0.0
2018-Apr-19 02:30N 37°57' E 023°36'0 0.0
2018-Apr-19 02:00N 37°57' E 023°36'0 0.0
2018-Apr-19 01:30N 37°57' E 023°36'0 0.0
2018-Apr-19 01:00N 37°57' E 023°36'0 0.0
2018-Apr-19 00:30N 37°57' E 023°36'0 0.0
2018-Apr-19 00:00N 37°57' E 023°36'0 0.0
2018-Apr-18 23:27N 37°57' E 023°36'0 0.0
2018-Apr-18 23:00N 37°57' E 023°36'0 0.0
2018-Apr-18 22:30N 37°57' E 023°36'0 0.0
2018-Apr-18 22:00N 37°57' E 023°36'0 0.0
2018-Apr-18 21:27N 37°57' E 023°36'0 0.0
2018-Apr-18 21:00N 37°57' E 023°36'0 0.0
2018-Apr-18 20:30N 37°57' E 023°36'0 0.0
2018-Apr-18 20:00N 37°57' E 023°36'0 0.0
2018-Apr-18 19:30N 37°57' E 023°36'0 0.0
2018-Apr-18 19:00N 37°57' E 023°36'0 0.0
2018-Apr-18 18:30N 37°57' E 023°36'  

Dump ship's entire track history